createdAt,value
2022-12-06T00:00:45.472Z,22.34
2022-12-06T00:03:12.572Z,22.31
2022-12-06T00:05:44.624Z,22.29
2022-12-06T00:08:13.254Z,22.27
2022-12-06T00:10:40.425Z,22.26
2022-12-06T00:13:07.385Z,22.24
2022-12-06T00:15:35.687Z,22.23
2022-12-06T00:18:03.096Z,22.20
2022-12-06T00:20:30.425Z,22.21
2022-12-06T00:22:57.696Z,22.15
2022-12-06T00:25:24.814Z,22.14
2022-12-06T00:27:52.202Z,22.11
2022-12-06T00:30:19.375Z,22.11
2022-12-06T00:32:46.326Z,22.07
2022-12-06T00:35:13.282Z,22.05
2022-12-06T00:37:40.214Z,22.09
2022-12-06T00:40:07.785Z,22.03
2022-12-06T00:42:34.745Z,22.03
2022-12-06T00:45:01.684Z,22.01
2022-12-06T00:47:28.712Z,22.02
2022-12-06T00:49:55.724Z,22.03
2022-12-06T00:52:22.795Z,21.95
2022-12-06T00:54:49.782Z,21.95
2022-12-06T00:57:17.076Z,22.00
2022-12-06T00:59:44.095Z,21.97
2022-12-06T01:02:11.024Z,21.98
2022-12-06T01:04:38.013Z,21.95
2022-12-06T01:07:05.014Z,21.94
2022-12-06T01:09:32.214Z,21.92
2022-12-06T01:11:59.164Z,21.89
2022-12-06T01:14:27.034Z,21.86
2022-12-06T01:16:54.275Z,21.86
2022-12-06T01:19:21.236Z,21.82
2022-12-06T01:21:48.942Z,21.82
2022-12-06T01:24:15.875Z,21.77
2022-12-06T01:26:42.777Z,21.74
2022-12-06T01:29:10.224Z,21.70
2022-12-06T01:31:38.967Z,21.68
2022-12-06T01:34:07.228Z,21.68
2022-12-06T01:36:34.275Z,21.62
2022-12-06T01:39:07.042Z,21.62
2022-12-06T01:41:34.295Z,21.61
2022-12-06T01:44:01.137Z,21.57
2022-12-06T01:46:29.383Z,21.56
2022-12-06T01:49:05.951Z,21.51
2022-12-06T01:51:33.023Z,21.50
2022-12-06T01:54:00.835Z,21.48
2022-12-06T01:56:28.071Z,21.47
2022-12-06T01:58:57.165Z,21.44
2022-12-06T02:01:26.302Z,21.41
2022-12-06T02:03:55.276Z,21.38
2022-12-06T02:06:22.513Z,21.35
2022-12-06T02:08:50.007Z,21.35
2022-12-06T02:11:16.932Z,21.33
2022-12-06T02:13:43.754Z,21.29
2022-12-06T02:16:15.942Z,21.30
2022-12-06T02:18:43.194Z,21.24
2022-12-06T02:21:10.424Z,21.23
2022-12-06T02:23:46.265Z,21.21
2022-12-06T02:26:18.915Z,21.18
2022-12-06T02:28:45.906Z,21.16
2022-12-06T02:31:14.120Z,21.14
2022-12-06T02:33:46.604Z,21.12
2022-12-06T02:36:13.794Z,21.10
2022-12-06T02:38:45.115Z,21.09
2022-12-06T02:41:19.574Z,21.05
2022-12-06T02:43:49.136Z,21.03
2022-12-06T02:46:18.231Z,21.02
2022-12-06T02:48:46.303Z,20.99
2022-12-06T02:51:14.434Z,20.97
2022-12-06T02:53:44.995Z,20.97
2022-12-06T02:56:14.073Z,20.93
2022-12-06T02:58:41.265Z,20.92
2022-12-06T03:01:15.432Z,20.89
2022-12-06T03:03:51.816Z,20.86
2022-12-06T03:06:21.944Z,20.85
2022-12-06T03:09:00.133Z,20.82
2022-12-06T03:11:29.934Z,20.81
2022-12-06T03:14:00.835Z,20.77
2022-12-06T03:16:30.605Z,20.77
2022-12-06T03:19:01.485Z,20.74
2022-12-06T03:21:31.807Z,20.72
2022-12-06T03:23:59.780Z,20.71
2022-12-06T03:26:28.535Z,20.68
2022-12-06T03:28:56.725Z,20.67
2022-12-06T03:31:24.166Z,20.66
2022-12-06T03:33:56.463Z,20.63
2022-12-06T03:36:25.116Z,20.59
2022-12-06T03:38:55.718Z,20.57
2022-12-06T03:41:26.025Z,20.56
2022-12-06T03:43:53.677Z,20.55
2022-12-06T03:46:24.798Z,20.53
2022-12-06T03:48:53.265Z,20.50
2022-12-06T03:51:23.496Z,20.49
2022-12-06T03:53:52.416Z,20.46
2022-12-06T03:56:19.883Z,20.42
2022-12-06T03:58:46.764Z,20.42
2022-12-06T04:01:13.625Z,20.40
2022-12-06T04:03:40.536Z,20.37
2022-12-06T04:06:08.332Z,20.37
2022-12-06T04:08:36.977Z,20.34
2022-12-06T04:11:04.173Z,20.32
2022-12-06T04:13:31.505Z,20.31
2022-12-06T04:15:59.792Z,20.27
2022-12-06T04:18:27.551Z,20.26
2022-12-06T04:21:05.626Z,20.24
2022-12-06T04:23:34.526Z,20.23
2022-12-06T04:26:01.666Z,20.22
2022-12-06T04:28:38.556Z,20.19
2022-12-06T04:31:20.130Z,20.18
2022-12-06T04:33:58.685Z,20.16
2022-12-06T04:36:35.636Z,20.14
2022-12-06T04:39:02.638Z,20.13
2022-12-06T04:41:39.555Z,20.10
2022-12-06T04:44:06.988Z,20.08
2022-12-06T04:46:34.168Z,20.06
2022-12-06T04:49:01.108Z,20.04
2022-12-06T04:51:28.084Z,20.04
2022-12-06T04:53:55.314Z,20.02
2022-12-06T04:56:22.188Z,19.99
2022-12-06T04:58:49.080Z,19.97
2022-12-06T05:01:16.101Z,19.95
2022-12-06T05:03:44.497Z,19.93
2022-12-06T05:06:11.715Z,19.90
2022-12-06T05:08:38.596Z,19.91
2022-12-06T05:11:05.676Z,19.90
2022-12-06T05:13:32.676Z,19.88
2022-12-06T05:16:02.702Z,19.87
2022-12-06T05:18:29.967Z,19.86
2022-12-06T05:21:04.996Z,19.85
2022-12-06T05:23:32.565Z,19.85
2022-12-06T05:26:00.363Z,19.84
2022-12-06T05:28:27.729Z,19.87
2022-12-06T05:30:54.775Z,19.88
2022-12-06T05:33:21.956Z,19.90
2022-12-06T05:35:48.812Z,19.93
2022-12-06T05:38:15.906Z,19.97
2022-12-06T05:40:43.535Z,20.01
2022-12-06T05:43:10.613Z,20.05
2022-12-06T05:45:38.214Z,20.09
2022-12-06T05:48:05.704Z,20.13
2022-12-06T05:50:32.674Z,20.17
2022-12-06T05:53:00.224Z,20.21
2022-12-06T05:55:27.505Z,20.24
2022-12-06T05:57:54.601Z,20.30
2022-12-06T06:00:22.044Z,20.34
2022-12-06T06:02:48.950Z,20.39
2022-12-06T06:05:15.955Z,20.44
2022-12-06T06:07:42.922Z,20.46
2022-12-06T06:10:09.992Z,20.52
2022-12-06T06:12:36.976Z,20.57
2022-12-06T06:15:07.554Z,20.61
2022-12-06T06:17:34.678Z,20.65
2022-12-06T06:20:05.919Z,20.71
2022-12-06T06:22:34.331Z,20.74
2022-12-06T06:25:01.975Z,20.80
2022-12-06T06:27:29.355Z,20.84
2022-12-06T06:29:56.325Z,20.89
2022-12-06T06:32:23.215Z,20.94
2022-12-06T06:34:50.216Z,20.99
2022-12-06T06:37:17.026Z,21.04
2022-12-06T06:39:44.021Z,21.08
2022-12-06T06:42:10.927Z,21.11
2022-12-06T06:44:37.945Z,21.16
2022-12-06T06:47:05.194Z,21.20
2022-12-06T06:49:32.335Z,21.25
2022-12-06T06:51:59.404Z,21.31
2022-12-06T06:54:28.373Z,21.32
2022-12-06T06:56:56.457Z,21.36
2022-12-06T06:59:25.269Z,21.40
2022-12-06T07:01:52.246Z,21.45
2022-12-06T07:04:19.386Z,21.49
2022-12-06T07:06:46.325Z,21.52
2022-12-06T07:09:13.454Z,21.56
2022-12-06T07:11:40.358Z,21.59
2022-12-06T07:14:07.300Z,21.64
2022-12-06T07:16:35.359Z,21.67
2022-12-06T07:19:06.257Z,21.71
2022-12-06T07:21:36.242Z,21.76
2022-12-06T07:24:03.651Z,21.78
2022-12-06T07:26:30.597Z,21.81
2022-12-06T07:28:58.702Z,21.85
2022-12-06T07:31:27.059Z,21.87
2022-12-06T07:33:55.146Z,21.90
2022-12-06T07:36:23.576Z,21.91
2022-12-06T07:38:51.444Z,21.88
2022-12-06T07:41:22.304Z,21.88
2022-12-06T07:43:52.316Z,21.86
2022-12-06T07:46:19.449Z,21.84
2022-12-06T07:48:46.613Z,21.84
2022-12-06T07:51:13.637Z,21.63
2022-12-06T07:53:40.636Z,21.51
2022-12-06T07:56:08.554Z,21.55
2022-12-06T07:58:35.640Z,21.59
2022-12-06T08:01:03.981Z,21.62
2022-12-06T08:03:31.941Z,21.65
2022-12-06T08:05:59.383Z,21.66
2022-12-06T08:08:28.701Z,21.69
2022-12-06T08:10:59.294Z,21.69
2022-12-06T08:13:26.494Z,21.71
2022-12-06T08:15:53.638Z,21.72
2022-12-06T08:18:20.852Z,21.73
2022-12-06T08:20:47.981Z,21.73
2022-12-06T08:25:47.871Z,21.74
2022-12-06T08:28:14.708Z,21.73
2022-12-06T08:30:42.332Z,21.72
2022-12-06T08:33:09.333Z,21.71
2022-12-06T08:35:37.812Z,21.69
2022-12-06T08:38:05.054Z,21.70
2022-12-06T08:40:32.136Z,21.72
2022-12-06T08:42:59.335Z,21.69
2022-12-06T08:45:26.425Z,21.64
2022-12-06T08:47:53.443Z,21.62
2022-12-06T08:50:20.435Z,21.56
2022-12-06T08:52:47.824Z,21.54
2022-12-06T08:55:14.932Z,21.51
2022-12-06T08:57:41.958Z,21.49
2022-12-06T09:00:11.567Z,21.49
2022-12-06T09:02:39.990Z,21.50
2022-12-06T09:05:07.536Z,21.50
2022-12-06T09:07:34.697Z,21.51
2022-12-06T09:10:02.866Z,21.52
2022-12-06T09:12:30.059Z,21.53
2022-12-06T09:14:57.076Z,21.54
2022-12-06T09:17:24.760Z,21.55
2022-12-06T09:19:51.932Z,21.55
2022-12-06T09:22:18.975Z,21.56
2022-12-06T09:24:45.979Z,21.55
2022-12-06T09:27:12.979Z,21.54
2022-12-06T09:29:41.013Z,21.54
2022-12-06T09:32:08.200Z,21.51
2022-12-06T09:34:35.252Z,21.50
2022-12-06T09:37:05.359Z,21.50
2022-12-06T09:39:35.185Z,21.47
2022-12-06T09:42:05.354Z,21.47
2022-12-06T09:44:35.495Z,21.45
2022-12-06T09:47:05.758Z,21.44
2022-12-06T09:49:43.709Z,21.41
2022-12-06T09:52:13.778Z,21.42
2022-12-06T09:54:49.053Z,21.39
2022-12-06T09:57:19.686Z,21.37
2022-12-06T09:59:49.876Z,21.36
2022-12-06T10:02:20.513Z,21.34
2022-12-06T10:04:47.934Z,21.32
2022-12-06T10:07:15.359Z,21.30
2022-12-06T10:09:43.971Z,21.28
2022-12-06T10:12:14.172Z,21.26
2022-12-06T10:14:42.716Z,21.24
2022-12-06T10:17:12.816Z,21.22
2022-12-06T10:19:43.045Z,21.21
2022-12-06T10:22:13.060Z,21.17
2022-12-06T10:24:43.259Z,21.16
2022-12-06T10:27:13.657Z,21.14
2022-12-06T10:29:43.890Z,21.12
2022-12-06T10:32:12.321Z,21.11
2022-12-06T10:34:44.426Z,21.09
2022-12-06T10:37:18.929Z,21.06
2022-12-06T10:39:51.698Z,21.05
2022-12-06T10:42:22.176Z,21.03
2022-12-06T10:44:52.715Z,21.01
2022-12-06T10:47:24.401Z,20.98
2022-12-06T10:49:57.080Z,20.97
2022-12-06T10:52:24.528Z,20.96
2022-12-06T10:54:54.746Z,20.93
2022-12-06T10:57:28.627Z,20.88
2022-12-06T11:00:03.886Z,20.86
2022-12-06T11:02:38.394Z,20.83
2022-12-06T11:05:11.016Z,20.79
2022-12-06T11:07:40.621Z,20.78
2022-12-06T11:10:12.349Z,20.75
2022-12-06T11:12:39.678Z,20.76
2022-12-06T11:15:15.558Z,20.76
2022-12-06T11:17:45.517Z,20.78
2022-12-06T11:20:15.717Z,20.78
2022-12-06T11:22:47.255Z,20.80
2022-12-06T11:25:17.740Z,20.80
2022-12-06T11:27:49.095Z,20.82
2022-12-06T11:30:23.923Z,20.86
2022-12-06T11:32:52.216Z,20.90
2022-12-06T11:35:21.322Z,20.93
2022-12-06T11:37:56.834Z,20.97
2022-12-06T11:40:27.125Z,21.00
2022-12-06T11:42:55.663Z,21.02
2022-12-06T11:45:25.699Z,21.06
2022-12-06T11:48:05.622Z,21.08
2022-12-06T11:50:36.257Z,21.12
2022-12-06T11:53:05.684Z,21.16
2022-12-06T11:55:35.988Z,21.18
2022-12-06T11:58:07.038Z,21.21
2022-12-06T12:00:34.239Z,21.24
2022-12-06T12:03:01.392Z,21.28
2022-12-06T12:05:31.548Z,21.31
2022-12-06T12:08:00.423Z,21.33
2022-12-06T12:10:27.186Z,21.36
2022-12-06T12:13:32.340Z,21.38
2022-12-06T12:16:17.659Z,21.37
2022-12-06T12:18:50.825Z,21.40
2022-12-06T12:21:18.016Z,21.41
2022-12-06T12:23:46.496Z,21.42
2022-12-06T12:26:16.014Z,21.44
2022-12-06T12:28:44.732Z,21.43
2022-12-06T12:31:19.152Z,21.41
2022-12-06T12:33:46.366Z,21.41
2022-12-06T12:36:16.796Z,21.40
2022-12-06T12:38:47.858Z,21.38
2022-12-06T12:41:18.925Z,21.37
2022-12-06T12:44:20.437Z,21.38
2022-12-06T12:46:44.547Z,21.39
2022-12-06T12:49:14.725Z,21.40
2022-12-06T12:51:47.788Z,21.44
2022-12-06T12:54:18.197Z,21.46
2022-12-06T12:56:45.417Z,21.49
2022-12-06T12:59:14.376Z,21.51
2022-12-06T13:01:44.536Z,21.54
2022-12-06T13:04:15.897Z,21.57
2022-12-06T13:06:44.302Z,21.61
2022-12-06T13:09:16.726Z,21.62
2022-12-06T13:12:05.009Z,21.65
2022-12-06T13:14:37.836Z,21.66
2022-12-06T13:17:08.101Z,21.67
2022-12-06T13:19:39.466Z,21.68
2022-12-06T13:22:07.397Z,21.69
2022-12-06T13:24:36.955Z,21.70
2022-12-06T13:27:05.773Z,21.70
2022-12-06T13:29:35.368Z,21.70
2022-12-06T13:32:05.569Z,21.69
2022-12-06T13:34:37.882Z,21.70
2022-12-06T13:37:25.148Z,21.69
2022-12-06T13:39:52.256Z,21.68
2022-12-06T13:42:23.100Z,21.67
2022-12-06T13:44:51.237Z,21.66
2022-12-06T13:47:27.243Z,21.65
2022-12-06T13:49:59.924Z,21.63
2022-12-06T13:52:30.230Z,21.60
2022-12-06T13:57:25.021Z,21.58
2022-12-06T13:59:53.020Z,21.53
2022-12-06T14:02:22.606Z,21.54
2022-12-06T14:04:49.796Z,21.52
2022-12-06T14:07:31.838Z,21.49
2022-12-06T14:10:08.547Z,21.48
2022-12-06T14:12:35.534Z,21.48
2022-12-06T14:15:04.098Z,21.47
2022-12-06T14:20:26.411Z,21.49
2022-12-06T14:22:54.752Z,21.52
2022-12-06T14:25:23.545Z,21.54
2022-12-06T14:27:52.028Z,21.55
2022-12-06T14:30:25.510Z,21.56
2022-12-06T14:32:56.150Z,21.57
2022-12-06T14:35:24.834Z,21.58
2022-12-06T14:37:57.452Z,21.59
2022-12-06T14:43:19.080Z,21.61
2022-12-06T14:45:46.801Z,21.61
2022-12-06T14:48:14.180Z,21.61
2022-12-06T14:50:44.519Z,21.60
2022-12-06T14:53:13.227Z,21.60
2022-12-06T14:55:54.362Z,21.59
2022-12-06T14:58:22.590Z,21.57
2022-12-06T15:01:09.641Z,21.55
2022-12-06T15:03:37.122Z,21.54
2022-12-06T15:06:17.677Z,21.53
2022-12-06T15:08:50.452Z,21.52
2022-12-06T15:11:38.711Z,21.49
2022-12-06T15:14:13.317Z,21.49
2022-12-06T15:16:40.192Z,21.47
2022-12-06T15:19:11.875Z,21.45
2022-12-06T15:21:38.574Z,21.42
2022-12-06T15:24:14.989Z,21.41
2022-12-06T15:26:41.593Z,21.39
2022-12-06T15:29:08.352Z,21.36
2022-12-06T15:31:36.218Z,21.35
2022-12-06T15:34:03.007Z,21.33
2022-12-06T15:36:33.336Z,21.30
2022-12-06T15:38:59.936Z,21.27
2022-12-06T15:41:27.601Z,21.24
2022-12-06T15:43:54.963Z,21.21
2022-12-06T15:46:24.112Z,21.19
2022-12-06T15:48:51.893Z,21.17
2022-12-06T15:51:21.047Z,21.18
2022-12-06T15:53:50.975Z,21.17
2022-12-06T15:56:19.116Z,21.17
2022-12-06T15:58:46.889Z,21.18
2022-12-06T16:01:17.643Z,21.19
2022-12-06T16:03:50.088Z,21.21
2022-12-06T16:06:18.338Z,21.23
2022-12-06T16:08:45.899Z,21.27
2022-12-06T16:11:13.398Z,21.28
2022-12-06T16:13:40.378Z,21.29
2022-12-06T16:16:07.614Z,21.30
2022-12-06T16:18:34.445Z,21.32
2022-12-06T16:21:01.253Z,21.33
2022-12-06T16:26:35.840Z,21.33
2022-12-06T16:29:04.019Z,21.32
2022-12-06T16:31:33.156Z,21.32
2022-12-06T16:34:03.096Z,21.31
2022-12-06T16:36:30.928Z,21.31
2022-12-06T16:38:59.930Z,21.30
2022-12-06T16:41:28.769Z,21.29
2022-12-06T16:43:55.731Z,21.27
2022-12-06T16:46:32.976Z,21.28
2022-12-06T16:49:22.122Z,21.26
2022-12-06T16:51:48.642Z,21.23
2022-12-06T16:54:18.378Z,21.21
2022-12-06T16:56:45.600Z,21.20
2022-12-06T16:59:16.183Z,21.19
2022-12-06T17:01:50.828Z,21.18
2022-12-06T17:04:17.908Z,21.16
2022-12-06T17:06:50.948Z,21.14
2022-12-06T17:09:17.673Z,21.13
2022-12-06T17:12:02.859Z,21.10
2022-12-06T17:14:29.653Z,21.09
2022-12-06T17:17:00.213Z,21.05
2022-12-06T17:19:28.363Z,21.03
2022-12-06T17:21:55.595Z,21.02
2022-12-06T17:24:23.028Z,20.99
2022-12-06T17:26:49.678Z,20.97
2022-12-06T17:29:16.378Z,20.98
2022-12-06T17:31:44.845Z,20.97
2022-12-06T17:34:26.025Z,20.99
2022-12-06T17:36:53.023Z,21.01
2022-12-06T17:39:21.087Z,21.03
2022-12-06T17:42:06.439Z,21.05
2022-12-06T17:44:34.250Z,21.08
2022-12-06T17:47:02.844Z,21.10
2022-12-06T17:49:29.464Z,21.12
2022-12-06T17:51:56.516Z,21.14
2022-12-06T17:54:23.599Z,21.17
2022-12-06T17:56:51.365Z,21.19
2022-12-06T17:59:19.249Z,21.21
2022-12-06T18:02:14.120Z,21.21
2022-12-06T18:04:37.147Z,21.24
2022-12-06T18:07:09.303Z,21.23
2022-12-06T18:09:37.025Z,21.26
2022-12-06T18:12:03.871Z,21.26
2022-12-06T18:14:30.618Z,21.27
2022-12-06T18:17:00.271Z,21.28
2022-12-06T18:19:28.283Z,21.28
2022-12-06T18:21:54.904Z,21.27
2022-12-06T18:24:23.905Z,21.28
2022-12-06T18:26:53.606Z,21.28
2022-12-06T18:29:21.487Z,21.28
2022-12-06T18:31:48.949Z,21.29
2022-12-06T18:34:15.675Z,21.28
2022-12-06T18:36:42.410Z,21.27
2022-12-06T18:39:15.413Z,21.27
2022-12-06T18:41:43.092Z,21.26
2022-12-06T18:44:10.642Z,21.24
2022-12-06T18:46:39.310Z,21.24
2022-12-06T18:49:06.850Z,21.26
2022-12-06T18:51:34.870Z,21.23
2022-12-06T18:54:03.281Z,21.24
2022-12-06T18:56:30.422Z,21.23
2022-12-06T18:59:04.610Z,21.23
2022-12-06T19:01:33.466Z,21.22
2022-12-06T19:04:01.006Z,21.20
2022-12-06T19:06:28.741Z,21.19
2022-12-06T19:08:56.564Z,21.20
2022-12-06T19:11:23.455Z,21.19
2022-12-06T19:13:53.918Z,21.18
2022-12-06T19:16:26.809Z,21.20
2022-12-06T19:18:57.303Z,21.19
2022-12-06T19:21:24.712Z,21.19
2022-12-06T19:23:55.278Z,21.17
2022-12-06T19:26:22.273Z,21.20
2022-12-06T19:28:48.965Z,21.21
2022-12-06T19:31:16.229Z,21.19
2022-12-06T19:33:44.261Z,21.19
2022-12-06T19:36:15.905Z,21.16
2022-12-06T19:38:43.084Z,21.14
2022-12-06T19:41:11.728Z,21.12
2022-12-06T19:43:57.220Z,21.11
2022-12-06T19:46:26.268Z,21.08
2022-12-06T19:48:53.703Z,21.07
2022-12-06T19:51:20.337Z,21.05
2022-12-06T19:53:46.976Z,21.03
2022-12-06T19:56:15.042Z,21.01
2022-12-06T19:58:42.096Z,20.99
2022-12-06T20:01:09.876Z,20.95
2022-12-06T20:03:36.777Z,20.93
2022-12-06T20:06:04.838Z,20.90
2022-12-06T20:08:31.772Z,20.88
2022-12-06T20:11:06.041Z,20.88
2022-12-06T20:13:33.010Z,20.83
2022-12-06T20:16:01.185Z,20.81
2022-12-06T20:18:28.561Z,20.78
2022-12-06T20:20:55.390Z,20.75
2022-12-06T20:23:22.006Z,20.76
2022-12-06T20:25:49.306Z,20.73
2022-12-06T20:28:16.055Z,20.68
2022-12-06T20:30:42.788Z,20.69
2022-12-06T20:33:10.148Z,20.66
2022-12-06T20:35:37.138Z,20.63
2022-12-06T20:38:03.758Z,20.59
2022-12-06T20:40:31.751Z,20.60
2022-12-06T20:43:05.036Z,20.59
2022-12-06T20:45:31.629Z,20.62
2022-12-06T20:48:05.959Z,20.62
2022-12-06T20:50:33.358Z,20.66
2022-12-06T20:53:22.742Z,20.64
2022-12-06T20:55:52.514Z,20.64
2022-12-06T20:58:20.551Z,20.66
2022-12-06T21:00:52.484Z,20.67
2022-12-06T21:03:19.651Z,20.68
2022-12-06T21:05:51.012Z,20.72
2022-12-06T21:08:25.307Z,20.75
2022-12-06T21:11:21.659Z,20.79
2022-12-06T21:13:41.823Z,20.82
2022-12-06T21:16:11.017Z,20.84
2022-12-06T21:18:37.955Z,20.88
2022-12-06T21:21:05.662Z,20.90
2022-12-06T21:23:34.191Z,20.95
2022-12-06T21:26:07.395Z,20.97
2022-12-06T21:28:34.641Z,21.00
2022-12-06T21:31:02.529Z,21.04
2022-12-06T21:33:30.842Z,21.06
2022-12-06T21:36:07.478Z,21.10
2022-12-06T21:38:36.338Z,21.14
2022-12-06T21:41:11.087Z,21.16
2022-12-06T21:43:41.738Z,21.19
2022-12-06T21:46:16.702Z,21.21
2022-12-06T21:48:48.893Z,21.25
2022-12-06T21:51:17.932Z,21.27
2022-12-06T21:53:46.157Z,21.29
2022-12-06T21:56:16.953Z,21.32
2022-12-06T21:58:44.489Z,21.35
2022-12-06T22:01:13.692Z,21.35
2022-12-06T22:03:49.411Z,21.37
2022-12-06T22:06:16.476Z,21.37
2022-12-06T22:08:44.309Z,21.37
2022-12-06T22:11:17.711Z,21.39
2022-12-06T22:13:45.685Z,21.38
2022-12-06T22:16:13.496Z,21.39
2022-12-06T22:18:44.749Z,21.37
2022-12-06T22:21:15.055Z,21.36
2022-12-06T22:23:43.289Z,21.35
2022-12-06T22:26:12.098Z,21.33
2022-12-06T22:28:38.695Z,21.32
2022-12-06T22:31:09.205Z,21.30
2022-12-06T22:33:36.337Z,21.28
2022-12-06T22:36:03.066Z,21.27
2022-12-06T22:38:29.688Z,21.27
2022-12-06T22:40:59.279Z,21.26
2022-12-06T22:43:26.372Z,21.27
2022-12-06T22:45:53.044Z,21.27
2022-12-06T22:48:19.727Z,21.27
2022-12-06T22:50:46.405Z,21.15
2022-12-06T22:53:12.998Z,21.20
2022-12-06T22:55:39.581Z,21.26
2022-12-06T22:58:14.527Z,21.29
2022-12-06T23:00:41.324Z,21.32
2022-12-06T23:03:15.383Z,21.36
2022-12-06T23:05:41.953Z,21.39
2022-12-06T23:08:08.650Z,21.42
2022-12-06T23:10:35.413Z,21.45
2022-12-06T23:13:10.958Z,21.47
2022-12-06T23:15:37.575Z,21.51
2022-12-06T23:18:04.283Z,21.57
2022-12-06T23:20:30.893Z,21.59
2022-12-06T23:22:57.653Z,21.63
2022-12-06T23:25:24.262Z,21.65
2022-12-06T23:27:50.917Z,21.66
2022-12-06T23:30:17.653Z,21.67
2022-12-06T23:32:44.230Z,21.70
2022-12-06T23:35:10.904Z,21.71
2022-12-06T23:37:37.492Z,21.73
2022-12-06T23:40:04.423Z,21.74
2022-12-06T23:42:31.038Z,21.76
2022-12-06T23:44:57.692Z,21.78
2022-12-06T23:47:25.315Z,21.77
2022-12-06T23:49:51.941Z,21.79
2022-12-06T23:52:18.548Z,21.80
2022-12-06T23:54:45.210Z,21.79
2022-12-06T23:57:15.022Z,21.80
2022-12-06T23:59:41.693Z,21.80
